Terminal Aerodrome Forecast
Issued by NWS

Home | Current Version | Previous Version | Text Only | Print | Product List | Glossary On
Versions: 1 2 3 4 5 6 7 8 9 10 11 12 13 14 15
000
FTUS45 KREV 241739
TAFMMH
TAF
KMMH 241739Z 2418/2518 32006KT P6SM SCT035
     FM250600 VRB03KT P6SM BCFG SCT005
     FM251400 29006KT P6SM SCT015=

USA.gov is the U.S. government's official web portal to all federal, state and local government web resources and services.